Time;durP1;ratioP1;P1;durP2;ratioP2;P2;SDS_P1;SDS_P2;PMS_P1;PMS_P2;Temp;Humidity;BMP_temperature;BMP_pressure;BME280_temperature;BME280_humidity;BME280_pressure;Samples;Min_cycle;Max_cycle;Signal;HPM_P1;HPM_P2
2021/01/11 00:01:22;;;;;;;1.50;1.40;;;19.40;44.40;;;;;;4975545;28;20534;-70
2021/01/11 00:03:48;;;;;;;2.00;1.90;;;19.40;44.40;;;;;;4993008;28;20482;-70
2021/01/11 00:06:15;;;;;;;1.87;1.77;;;19.40;44.50;;;;;;4972015;28;20496;-69
2021/01/11 00:08:41;;;;;;;2.33;2.23;;;19.40;44.40;;;;;;4987805;28;20484;-69
2021/01/11 00:11:07;;;;;;;1.70;1.70;;;19.30;44.30;;;;;;4978276;28;20489;-70
2021/01/11 00:13:34;;;;;;;2.20;2.00;;;19.30;44.30;;;;;;4958114;28;20521;-69
2021/01/11 00:16:00;;;;;;;5.20;1.77;;;19.30;45.10;;;;;;4999224;28;20506;-70
2021/01/11 00:18:26;;;;;;;1.60;1.60;;;19.30;44.30;;;;;;4990815;28;20488;-69
2021/01/11 00:20:52;;;;;;;1.80;1.70;;;19.30;44.10;;;;;;4991952;28;20492;-70
2021/01/11 00:23:19;;;;;;;1.60;1.50;;;19.30;44.00;;;;;;4989404;28;20581;-70
2021/01/11 00:25:45;;;;;;;2.03;1.93;;;19.30;44.20;;;;;;4989565;28;20496;-70
2021/01/11 00:28:11;;;;;;;2.03;1.93;;;19.30;44.20;;;;;;4993584;28;20500;-70
2021/01/11 00:30:37;;;;;;;1.67;1.57;;;19.40;44.20;;;;;;4992762;28;21015;-70
2021/01/11 00:33:04;;;;;;;1.60;1.50;;;19.40;44.10;;;;;;4980596;28;21045;-70
2021/01/11 00:35:30;;;;;;;1.53;1.43;;;19.40;43.90;;;;;;4989927;28;21134;-70
2021/01/11 00:37:56;;;;;;;2.07;1.97;;;19.40;44.10;;;;;;4989608;28;20527;-70
2021/01/11 00:40:23;;;;;;;2.30;2.20;;;19.30;44.90;;;;;;4990294;28;20488;-71
2021/01/11 00:42:50;;;;;;;2.60;1.80;;;19.30;44.20;;;;;;4981685;28;20496;-71
2021/01/11 00:45:16;;;;;;;2.50;2.40;;;19.30;44.20;;;;;;4981533;28;20476;-71
2021/01/11 00:47:42;;;;;;;2.00;1.90;;;19.30;44.30;;;;;;4972303;28;20494;-71
2021/01/11 00:50:09;;;;;;;2.50;2.30;;;19.30;44.30;;;;;;4984817;28;20519;-70
2021/01/11 00:52:36;;;;;;;2.77;2.20;;;19.30;44.40;;;;;;4981870;28;20496;-70
2021/01/11 00:55:02;;;;;;;2.00;1.90;;;19.30;44.30;;;;;;4970793;28;20485;-70
2021/01/11 00:57:30;;;;;;;2.20;1.97;;;19.30;44.30;;;;;;4953970;28;20505;-70
2021/01/11 00:59:56;;;;;;;1.93;1.83;;;19.30;44.20;;;;;;4985432;28;20500;-70
2021/01/11 01:02:22;;;;;;;1.80;1.80;;;19.30;44.10;;;;;;4969978;28;20566;-70
2021/01/11 01:04:48;;;;;;;2.10;2.00;;;19.30;44.20;;;;;;4991092;28;20480;-70
2021/01/11 01:07:15;;;;;;;2.37;2.27;;;19.30;44.10;;;;;;4985663;28;20502;-69
2021/01/11 01:09:41;;;;;;;2.10;2.00;;;19.30;44.10;;;;;;4980754;28;20542;-71
2021/01/11 01:12:07;;;;;;;2.30;2.10;;;19.30;44.00;;;;;;4957664;28;21008;-70
2021/01/11 01:14:34;;;;;;;2.00;1.97;;;19.30;44.20;;;;;;4988954;28;20484;-70
2021/01/11 01:17:00;;;;;;;2.00;2.00;;;19.30;44.20;;;;;;4990998;28;21523;-70
2021/01/11 01:19:27;;;;;;;2.03;1.93;;;19.30;44.30;;;;;;4991735;28;20481;-70
2021/01/11 01:21:53;;;;;;;2.40;1.90;;;19.30;44.20;;;;;;4989155;28;20582;-70
2021/01/11 01:24:19;;;;;;;1.87;1.77;;;19.30;44.30;;;;;;4975822;28;20489;-70
2021/01/11 01:26:45;;;;;;;2.20;2.10;;;19.30;44.40;;;;;;4988763;28;20515;-71
2021/01/11 01:29:11;;;;;;;2.70;2.17;;;19.30;44.40;;;;;;4992039;28;20480;-70
2021/01/11 01:31:38;;;;;;;1.93;1.67;;;19.30;44.10;;;;;;4991523;28;20525;-70
2021/01/11 01:34:04;;;;;;;2.20;2.10;;;19.30;44.10;;;;;;4990734;28;20604;-70
2021/01/11 01:36:30;;;;;;;2.27;2.13;;;19.30;44.30;;;;;;4989739;28;20489;-71
2021/01/11 01:38:56;;;;;;;2.13;2.03;;;19.30;44.30;;;;;;4987217;28;20481;-71
2021/01/11 01:41:23;;;;;;;2.37;2.27;;;19.40;44.40;;;;;;4989647;28;20573;-70
2021/01/11 01:43:49;;;;;;;2.20;2.10;;;19.40;44.30;;;;;;4987316;28;20491;-70
2021/01/11 01:46:16;;;;;;;2.13;2.03;;;19.40;44.20;;;;;;4988020;28;20489;-70
2021/01/11 01:48:43;;;;;;;2.77;2.67;;;19.40;44.10;;;;;;4989283;28;20509;-70
2021/01/11 01:51:09;;;;;;;2.00;1.90;;;19.40;44.10;;;;;;4989462;28;20488;-70
2021/01/11 01:53:35;;;;;;;2.27;2.17;;;19.50;44.10;;;;;;4990090;28;20472;-71
2021/01/11 01:56:02;;;;;;;1.80;1.70;;;19.50;44.10;;;;;;4988086;28;20500;-71
2021/01/11 01:58:28;;;;;;;2.00;1.90;;;19.40;43.80;;;;;;4990373;28;21118;-70
2021/01/11 02:00:54;;;;;;;2.30;2.20;;;19.40;43.90;;;;;;4991197;28;20499;-70
2021/01/11 02:03:20;;;;;;;2.50;2.30;;;19.40;44.00;;;;;;4992389;28;21098;-71
2021/01/11 02:05:47;;;;;;;2.23;2.13;;;19.40;45.00;;;;;;4976408;28;21049;-71
2021/01/11 02:08:17;;;;;;;2.10;1.97;;;19.30;44.20;;;;;;4979275;28;20489;-70
2021/01/11 02:10:58;;;;;;;4.10;2.50;;;19.40;44.30;;;;;;4975705;28;20489;-71
2021/01/11 02:13:38;;;;;;;2.27;2.17;;;19.30;44.30;;;;;;4991249;28;20580;-71
2021/01/11 02:16:06;;;;;;;2.70;2.47;;;19.30;45.00;;;;;;4989524;28;20492;-70
2021/01/11 02:18:39;;;;;;;2.30;2.10;;;19.30;44.30;;;;;;4988318;28;20485;-71
2021/01/11 02:21:14;;;;;;;1.93;1.83;;;19.30;44.10;;;;;;4988949;28;20496;-70
2021/01/11 02:24:07;;;;;;;2.07;1.97;;;19.30;44.00;;;;;;4975783;28;21051;-71
2021/01/11 02:26:42;;;;;;;2.20;2.10;;;19.30;44.10;;;;;;4988923;28;21055;-70
2021/01/11 02:29:13;;;;;;;3.57;2.30;;;19.30;44.20;;;;;;4990976;28;20559;-71
2021/01/11 02:31:40;;;;;;;3.00;2.80;;;19.30;44.10;;;;;;4992577;28;20852;-71
2021/01/11 02:34:06;;;;;;;2.20;2.10;;;19.40;44.20;;;;;;4987355;28;20496;-71
2021/01/11 02:36:32;;;;;;;2.30;2.20;;;19.30;43.90;;;;;;4979437;28;20477;-71
2021/01/11 02:38:58;;;;;;;2.83;2.60;;;19.30;44.10;;;;;;4987667;28;20489;-71
2021/01/11 02:41:24;;;;;;;3.10;2.90;;;19.30;44.10;;;;;;4978037;28;20504;-71
2021/01/11 02:43:51;;;;;;;2.17;2.07;;;19.30;44.20;;;;;;4987939;28;20493;-71
2021/01/11 02:46:17;;;;;;;2.30;2.20;;;19.30;44.20;;;;;;4993619;28;21127;-71
2021/01/11 02:48:48;;;;;;;2.80;2.60;;;19.30;44.30;;;;;;4994042;28;20522;-70
2021/01/11 02:51:21;;;;;;;3.93;3.63;;;19.30;44.50;;;;;;4997307;28;20519;-71
2021/01/11 02:53:53;;;;;;;3.10;2.47;;;19.30;44.20;;;;;;4977851;28;20473;-70
2021/01/11 02:56:21;;;;;;;3.03;2.83;;;19.30;44.30;;;;;;4975178;28;20481;-70
2021/01/11 02:59:02;;;;;;;2.80;2.20;;;19.30;44.40;;;;;;4988284;28;20564;-70
2021/01/11 03:01:32;;;;;;;2.53;2.33;;;19.30;44.40;;;;;;4980689;28;20519;-70
2021/01/11 03:03:59;;;;;;;3.07;2.87;;;19.30;44.40;;;;;;4987852;28;20519;-71
2021/01/11 03:06:29;;;;;;;2.40;2.30;;;19.30;44.30;;;;;;4989130;28;20484;-70
2021/01/11 03:09:01;;;;;;;2.37;2.13;;;19.30;44.30;;;;;;4976700;28;20604;-70
2021/01/11 03:11:27;;;;;;;2.87;2.67;;;19.30;44.40;;;;;;4985869;28;20491;-70
2021/01/11 03:13:54;;;;;;;3.50;3.27;;;19.30;44.30;;;;;;4990765;28;20911;-70
2021/01/11 03:16:20;;;;;;;5.67;3.43;;;19.30;44.20;;;;;;4989427;28;20871;-70
2021/01/11 03:18:46;;;;;;;2.97;2.70;;;19.30;44.20;;;;;;4992963;28;20539;-69
2021/01/11 03:21:13;;;;;;;4.10;2.73;;;19.30;44.10;;;;;;4993794;28;20499;-69
2021/01/11 03:23:39;;;;;;;3.90;3.30;;;19.30;44.20;;;;;;4990318;28;20521;-69
2021/01/11 03:26:05;;;;;;;3.40;3.10;;;19.30;44.20;;;;;;4990802;28;20481;-70
2021/01/11 03:28:31;;;;;;;3.03;2.87;;;19.30;44.20;;;;;;4993520;28;20484;-69
2021/01/11 03:30:57;;;;;;;4.00;3.33;;;19.30;44.20;;;;;;4991604;28;20542;-69
2021/01/11 03:33:23;;;;;;;4.47;4.07;;;19.40;44.20;;;;;;4993807;28;20472;-69
2021/01/11 03:35:50;;;;;;;3.50;3.20;;;19.40;44.10;;;;;;4992367;28;20483;-69
2021/01/11 03:38:17;;;;;;;3.63;3.33;;;19.40;44.20;;;;;;4992156;28;20482;-70
2021/01/11 03:40:43;;;;;;;4.93;4.30;;;19.40;44.00;;;;;;4990450;28;20504;-70
2021/01/11 03:43:09;;;;;;;6.83;4.07;;;19.30;43.90;;;;;;4992544;28;20485;-70
2021/01/11 03:45:35;;;;;;;6.43;3.67;;;19.30;44.10;;;;;;4985719;28;20492;-69
2021/01/11 03:48:01;;;;;;;6.50;4.00;;;19.30;44.10;;;;;;4999720;28;20488;-69
2021/01/11 03:50:27;;;;;;;6.87;4.13;;;19.30;44.00;;;;;;4980182;28;20478;-70
2021/01/11 03:52:53;;;;;;;5.47;3.43;;;19.30;44.00;;;;;;4990902;28;20489;-70
2021/01/11 03:55:20;;;;;;;7.10;4.27;;;19.30;44.20;;;;;;4987520;28;20484;-69
2021/01/11 03:57:47;;;;;;;4.40;4.00;;;19.30;44.20;;;;;;4991720;28;20492;-69
2021/01/11 04:00:14;;;;;;;5.37;4.87;;;19.40;44.30;;;;;;4983579;28;20493;-69
2021/01/11 04:02:40;;;;;;;4.20;2.87;;;19.40;44.20;;;;;;4990054;28;20488;-70
2021/01/11 04:05:07;;;;;;;4.50;4.10;;;19.40;44.10;;;;;;4991617;28;20500;-69
2021/01/11 04:07:33;;;;;;;4.20;3.80;;;19.40;43.90;;;;;;4991377;28;20488;-70
2021/01/11 04:10:00;;;;;;;5.30;4.30;;;19.30;43.90;;;;;;4978388;28;20489;-69
2021/01/11 04:12:27;;;;;;;4.90;4.40;;;19.30;44.00;;;;;;4989373;28;20520;-69
2021/01/11 04:14:53;;;;;;;5.13;4.40;;;19.20;44.10;;;;;;4989166;28;20494;-69
2021/01/11 04:17:19;;;;;;;5.47;4.77;;;19.20;44.00;;;;;;4990416;28;20480;-70
2021/01/11 04:19:46;;;;;;;5.20;4.67;;;19.20;44.10;;;;;;4991383;28;20864;-69
2021/01/11 04:22:12;;;;;;;6.50;4.33;;;19.20;44.20;;;;;;4990443;28;20920;-70
2021/01/11 04:24:38;;;;;;;5.73;4.93;;;19.20;44.40;;;;;;4980072;28;20484;-70
2021/01/11 04:27:04;;;;;;;6.30;5.10;;;19.20;44.30;;;;;;4984549;28;20491;-69
2021/01/11 04:29:31;;;;;;;4.27;3.90;;;19.20;44.30;;;;;;4999983;28;21023;-69
2021/01/11 04:31:58;;;;;;;6.30;4.80;;;19.20;44.30;;;;;;4992695;28;20545;-70
2021/01/11 04:34:24;;;;;;;4.60;3.90;;;19.20;44.40;;;;;;4991487;28;20488;-69
2021/01/11 04:36:50;;;;;;;7.40;4.47;;;19.30;44.80;;;;;;4990591;28;20499;-70
2021/01/11 04:39:16;;;;;;;5.90;5.03;;;19.30;44.60;;;;;;4990451;28;20493;-70
2021/01/11 04:41:42;;;;;;;5.37;4.87;;;19.30;44.60;;;;;;4989265;28;20493;-70
2021/01/11 04:44:09;;;;;;;5.57;4.60;;;19.40;44.60;;;;;;4990040;28;20501;-69
2021/01/11 04:46:36;;;;;;;6.37;4.90;;;19.50;45.50;;;;;;4993866;28;20477;-68
2021/01/11 04:49:02;;;;;;;6.47;4.40;;;19.50;44.60;;;;;;4991281;28;20489;-69
2021/01/11 04:51:29;;;;;;;4.50;4.10;;;19.50;44.60;;;;;;4992022;28;20485;-70
2021/01/11 04:53:55;;;;;;;6.60;5.27;;;19.50;44.50;;;;;;4988137;28;20504;-69
2021/01/11 04:56:21;;;;;;;5.20;4.47;;;19.50;44.50;;;;;;4990799;28;20484;-70
2021/01/11 04:58:53;;;;;;;5.53;5.00;;;19.50;44.50;;;;;;4990834;28;21001;-69
2021/01/11 05:01:21;;;;;;;5.40;4.63;;;19.50;44.40;;;;;;4980646;28;20484;-69
2021/01/11 05:03:49;;;;;;;6.50;5.07;;;19.60;44.50;;;;;;4992597;28;20548;-69
2021/01/11 05:06:16;;;;;;;6.90;6.10;;;19.60;44.50;;;;;;4978954;28;20480;-69
2021/01/11 05:08:42;;;;;;;7.93;6.17;;;19.60;44.50;;;;;;4991208;28;20472;-69
2021/01/11 05:11:08;;;;;;;5.93;4.83;;;19.60;44.50;;;;;;4990294;28;20477;-70
2021/01/11 05:13:34;;;;;;;6.23;4.83;;;19.60;44.50;;;;;;4983568;28;20491;-70
2021/01/11 05:16:01;;;;;;;9.57;6.00;;;19.60;44.50;;;;;;4986585;28;20484;-69
2021/01/11 05:18:32;;;;;;;9.00;6.70;;;19.60;44.50;;;;;;4991275;28;20496;-68
2021/01/11 05:20:59;;;;;;;7.90;5.50;;;19.60;44.50;;;;;;4989941;28;21038;-70
2021/01/11 05:23:25;;;;;;;7.00;6.00;;;19.50;44.40;;;;;;4991868;28;20488;-70
2021/01/11 05:25:51;;;;;;;9.70;5.50;;;19.50;44.60;;;;;;4989276;28;20496;-70
2021/01/11 05:28:18;;;;;;;6.50;5.90;;;19.40;44.60;;;;;;4983496;28;20477;-69
2021/01/11 05:30:44;;;;;;;6.50;5.00;;;19.50;44.60;;;;;;4993623;28;20657;-68
2021/01/11 05:33:16;;;;;;;7.10;5.47;;;19.50;44.60;;;;;;4990647;28;20481;-70
2021/01/11 05:35:42;;;;;;;6.53;5.90;;;19.50;44.30;;;;;;4985851;28;20639;-70
2021/01/11 05:38:16;;;;;;;6.27;5.47;;;19.50;44.20;;;;;;4989383;28;20489;-69
2021/01/11 05:40:42;;;;;;;8.33;5.63;;;19.50;44.30;;;;;;4986569;28;21563;-69
2021/01/11 05:43:08;;;;;;;6.80;5.30;;;19.40;44.30;;;;;;4988617;28;20488;-70
2021/01/11 05:45:35;;;;;;;8.50;5.67;;;19.40;44.30;;;;;;4985513;28;21214;-70
2021/01/11 05:48:06;;;;;;;6.17;5.57;;;19.40;44.30;;;;;;4989743;28;20488;-70
2021/01/11 05:50:34;;;;;;;6.67;5.17;;;19.40;44.30;;;;;;4988949;28;20482;-70
2021/01/11 05:53:00;;;;;;;8.77;6.83;;;19.30;44.20;;;;;;4988032;28;20502;-69
2021/01/11 05:55:28;;;;;;;6.93;6.23;;;19.30;44.20;;;;;;4987851;28;20495;-70
2021/01/11 05:57:58;;;;;;;6.77;6.00;;;19.30;44.20;;;;;;4990814;28;20562;-70
2021/01/11 06:00:25;;;;;;;6.77;5.53;;;19.30;44.10;;;;;;4992998;28;20480;-70
2021/01/11 06:02:52;;;;;;;6.90;6.20;;;19.30;44.20;;;;;;4993756;28;20572;-70
2021/01/11 06:05:19;;;;;;;6.63;5.23;;;19.30;44.20;;;;;;4989406;28;20489;-69
2021/01/11 06:07:45;;;;;;;6.20;5.37;;;19.30;44.10;;;;;;4989726;28;20925;-70
2021/01/11 06:10:12;;;;;;;6.43;4.53;;;19.40;44.00;;;;;;4986633;28;20604;-69
2021/01/11 06:12:39;;;;;;;12.23;6.80;;;19.50;44.20;;;;;;4989493;28;20955;-69
2021/01/11 06:15:07;;;;;;;5.87;5.30;;;19.50;45.90;;;;;;4986687;28;20485;-69
2021/01/11 06:17:33;;;;;;;6.90;5.20;;;19.70;45.50;;;;;;4989182;28;20489;-70
2021/01/11 06:19:59;;;;;;;5.87;5.03;;;19.70;46.40;;;;;;4989593;28;20552;-70
2021/01/11 06:23:13;;;;;;;5.63;5.10;;;19.70;46.10;;;;;;4989858;28;20491;-71
2021/01/11 06:25:46;;;;;;;5.53;4.83;;;19.70;46.10;;;;;;4968285;28;20488;-71
2021/01/11 06:28:13;;;;;;;5.93;5.33;;;19.60;45.90;;;;;;4997909;28;20573;-71
2021/01/11 06:30:41;;;;;;;5.50;5.07;;;19.60;46.30;;;;;;4992959;28;20572;-71
2021/01/11 06:33:13;;;;;;;6.43;5.00;;;19.50;46.20;;;;;;4976277;28;21022;-71
2021/01/11 06:35:40;;;;;;;5.30;4.63;;;19.50;46.50;;;;;;4986595;28;20480;-71
2021/01/11 06:38:18;;;;;;;4.73;4.33;;;19.50;46.80;;;;;;4986541;28;20481;-71
2021/01/11 06:40:45;;;;;;;4.97;4.47;;;19.50;47.00;;;;;;4985636;28;20873;-71
2021/01/11 06:43:11;;;;;;;5.57;4.40;;;19.40;47.60;;;;;;4987736;28;20481;-71
2021/01/11 06:45:38;;;;;;;4.07;3.77;;;19.30;47.40;;;;;;4984030;28;20488;-70
2021/01/11 06:48:05;;;;;;;5.03;3.70;;;19.30;47.70;;;;;;4989733;28;20488;-69
2021/01/11 06:50:32;;;;;;;4.17;3.87;;;19.30;48.00;;;;;;4987611;28;20487;-70
2021/01/11 06:52:59;;;;;;;4.87;4.10;;;19.30;48.30;;;;;;4992875;28;21960;-70
2021/01/11 06:55:26;;;;;;;3.97;3.10;;;19.40;48.40;;;;;;4992720;28;20575;-70
2021/01/11 06:57:55;;;;;;;5.00;3.83;;;19.50;48.50;;;;;;4979955;28;20488;-70
2021/01/11 07:00:21;;;;;;;3.80;3.50;;;19.50;48.40;;;;;;4991501;28;20492;-70
2021/01/11 07:02:48;;;;;;;3.00;2.80;;;19.60;48.50;;;;;;4987535;28;20839;-70
2021/01/11 07:05:36;;;;;;;2.80;2.60;;;19.70;48.40;;;;;;4983546;28;21046;-70
2021/01/11 07:08:03;;;;;;;3.23;2.93;;;19.70;48.20;;;;;;4993177;28;20487;-69
2021/01/11 07:10:29;;;;;;;3.30;3.10;;;19.70;48.30;;;;;;4989719;28;20489;-70
2021/01/11 07:13:26;;;;;;;3.37;3.17;;;19.70;48.40;;;;;;4987475;28;20483;-70
2021/01/11 07:16:16;;;;;;;3.00;2.80;;;19.60;48.40;;;;;;4984317;28;21067;-70
2021/01/11 07:18:53;;;;;;;3.23;3.03;;;19.60;48.70;;;;;;4989177;28;21021;-70
2021/01/11 07:21:21;;;;;;;3.30;3.10;;;19.60;49.00;;;;;;4981414;28;21035;-70
2021/01/11 07:23:47;;;;;;;2.43;2.30;;;19.50;49.20;;;;;;4979641;28;21111;-70
2021/01/11 07:26:14;;;;;;;2.30;2.17;;;19.50;49.30;;;;;;4985386;28;20485;-70
2021/01/11 07:28:48;;;;;;;2.57;2.47;;;19.50;49.40;;;;;;4990042;28;20489;-70
2021/01/11 07:31:18;;;;;;;2.30;2.20;;;19.50;50.30;;;;;;4990450;28;20473;-70
2021/01/11 07:33:44;;;;;;;2.20;2.00;;;19.50;49.40;;;;;;4993934;28;20483;-71
2021/01/11 07:36:18;;;;;;;2.57;2.37;;;19.50;49.60;;;;;;4988009;28;20474;-70
2021/01/11 07:38:45;;;;;;;2.77;2.67;;;19.50;49.50;;;;;;4980512;28;20635;-71
2021/01/11 07:41:11;;;;;;;2.30;2.20;;;19.50;49.60;;;;;;4988049;28;21708;-71
2021/01/11 07:43:37;;;;;;;2.37;2.27;;;19.50;49.50;;;;;;4980284;28;20481;-70
2021/01/11 07:46:04;;;;;;;2.07;1.97;;;19.50;49.70;;;;;;4990656;28;20492;-70
2021/01/11 07:48:30;;;;;;;2.20;2.10;;;19.50;49.60;;;;;;4988776;28;20499;-70
2021/01/11 07:51:08;;;;;;;2.50;2.40;;;19.50;49.60;;;;;;4993266;28;20496;-70
2021/01/11 07:53:39;;;;;;;2.87;2.60;;;19.50;49.50;;;;;;4990921;28;20484;-70
2021/01/11 07:56:08;;;;;;;2.60;2.40;;;19.50;49.50;;;;;;4974681;28;20526;-70
2021/01/11 07:58:34;;;;;;;1.60;1.47;;;19.60;49.50;;;;;;4989087;28;20485;-70
2021/01/11 08:01:02;;;;;;;2.60;1.80;;;19.60;49.40;;;;;;4988444;28;20489;-70
2021/01/11 08:03:28;;;;;;;2.13;2.03;;;19.60;49.50;;;;;;4976194;28;20502;-70
2021/01/11 08:06:00;;;;;;;1.60;1.50;;;19.60;49.60;;;;;;4987376;28;20496;-70
2021/01/11 08:08:27;;;;;;;2.07;1.97;;;19.60;49.70;;;;;;4988782;28;20493;-71
2021/01/11 08:10:54;;;;;;;2.10;2.00;;;19.50;49.90;;;;;;4989866;28;20489;-70
2021/01/11 08:13:21;;;;;;;2.30;2.20;;;19.40;50.00;;;;;;4989395;28;20481;-70
2021/01/11 08:15:53;;;;;;;1.73;1.63;;;19.40;49.90;;;;;;4982980;28;20561;-71
2021/01/11 08:18:19;;;;;;;2.07;1.97;;;19.50;49.90;;;;;;4979286;28;21193;-71
2021/01/11 08:20:45;;;;;;;2.00;1.90;;;19.60;49.90;;;;;;4979812;28;20484;-70
2021/01/11 08:23:12;;;;;;;1.40;1.30;;;19.60;49.70;;;;;;4990055;28;20476;-70
2021/01/11 08:25:38;;;;;;;1.67;1.67;;;19.60;49.60;;;;;;4988790;28;20508;-71
2021/01/11 08:28:05;;;;;;;2.00;1.80;;;19.70;49.70;;;;;;4982157;28;21095;-71
2021/01/11 08:30:31;;;;;;;1.87;1.87;;;19.70;49.80;;;;;;4988552;28;20504;-71
2021/01/11 08:32:57;;;;;;;2.47;2.37;;;19.70;50.00;;;;;;4988036;28;20906;-71
2021/01/11 08:35:24;;;;;;;1.67;1.60;;;19.60;50.00;;;;;;4988885;28;20483;-71
2021/01/11 08:37:50;;;;;;;1.30;1.30;;;19.60;50.90;;;;;;4977108;28;21551;-71
2021/01/11 08:40:19;;;;;;;1.80;1.70;;;19.60;50.00;;;;;;4980161;28;20504;-70
2021/01/11 08:42:45;;;;;;;1.80;1.70;;;19.60;50.40;;;;;;4989551;28;20504;-71
2021/01/11 08:45:28;;;;;;;1.83;1.73;;;19.50;50.20;;;;;;4986963;28;20484;-70
2021/01/11 08:47:58;;;;;;;1.53;1.43;;;19.60;50.20;;;;;;4988778;28;20498;-73
2021/01/11 08:50:24;;;;;;;1.83;1.73;;;19.50;50.40;;;;;;4990109;28;20534;-72
2021/01/11 08:52:50;;;;;;;1.37;1.37;;;19.50;50.60;;;;;;4988925;28;20519;-75
2021/01/11 08:55:18;;;;;;;1.50;1.50;;;19.50;50.50;;;;;;4987913;28;20586;-71
2021/01/11 08:57:55;;;;;;;1.50;1.40;;;19.50;50.70;;;;;;4989336;28;20508;-70
2021/01/11 09:00:22;;;;;;;1.83;1.73;;;19.50;50.50;;;;;;4980482;28;21328;-71
2021/01/11 09:02:49;;;;;;;1.50;1.50;;;19.50;50.20;;;;;;4992635;28;20996;-70
2021/01/11 09:05:22;;;;;;;1.60;1.60;;;19.50;50.30;;;;;;4988267;28;20476;-71
2021/01/11 09:07:48;;;;;;;1.60;1.50;;;19.60;50.30;;;;;;4975601;28;20527;-71
2021/01/11 09:10:23;;;;;;;1.77;1.67;;;19.60;50.10;;;;;;4990912;28;20918;-71
2021/01/11 09:12:50;;;;;;;1.83;1.73;;;19.60;49.80;;;;;;4978805;28;20520;-71
2021/01/11 09:15:24;;;;;;;1.93;1.70;;;19.60;49.80;;;;;;4987725;28;21096;-71
2021/01/11 09:18:01;;;;;;;1.40;1.40;;;19.60;49.80;;;;;;4983022;28;20587;-71
2021/01/11 09:20:27;;;;;;;1.40;1.30;;;19.60;49.70;;;;;;4986690;28;20567;-71
2021/01/11 09:22:55;;;;;;;1.70;1.60;;;19.60;50.00;;;;;;4988881;28;20520;-71
2021/01/11 09:25:22;;;;;;;2.13;2.03;;;19.50;50.20;;;;;;4982690;28;20485;-70
2021/01/11 09:27:48;;;;;;;2.10;1.90;;;19.50;50.50;;;;;;4976593;28;20477;-69
2021/01/11 09:30:15;;;;;;;2.03;1.93;;;19.50;50.30;;;;;;4987413;28;20491;-70
2021/01/11 09:32:43;;;;;;;1.83;1.73;;;19.50;50.40;;;;;;4990105;28;20559;-70
2021/01/11 09:35:12;;;;;;;1.80;1.70;;;19.50;50.40;;;;;;4989789;28;20490;-70
2021/01/11 09:37:38;;;;;;;2.23;2.13;;;19.50;50.60;;;;;;4985273;28;21012;-71
2021/01/11 09:40:05;;;;;;;3.43;2.00;;;19.50;50.40;;;;;;4978306;28;20505;-70
2021/01/11 09:42:31;;;;;;;1.80;1.70;;;19.50;50.50;;;;;;4986477;28;21647;-70
2021/01/11 09:44:57;;;;;;;2.20;2.10;;;19.50;50.60;;;;;;4982284;28;20489;-70
2021/01/11 09:47:23;;;;;;;3.07;2.00;;;19.50;50.60;;;;;;4970084;28;20919;-70
2021/01/11 09:49:50;;;;;;;4.30;2.10;;;19.50;50.70;;;;;;4989835;28;20500;-70
2021/01/11 09:52:17;;;;;;;2.20;2.10;;;19.50;50.60;;;;;;4990862;28;20734;-69
2021/01/11 09:54:43;;;;;;;2.83;2.30;;;19.50;50.60;;;;;;4986290;28;20850;-70
2021/01/11 09:57:10;;;;;;;2.40;2.20;;;19.50;49.90;;;;;;4989139;28;20493;-70
2021/01/11 09:59:36;;;;;;;2.43;2.30;;;19.50;50.00;;;;;;4991387;28;20477;-70
2021/01/11 10:02:02;;;;;;;2.47;2.30;;;19.60;50.10;;;;;;4982807;28;20501;-70
2021/01/11 10:04:28;;;;;;;2.67;2.57;;;19.70;50.10;;;;;;4993383;28;20487;-69
2021/01/11 10:06:56;;;;;;;2.63;2.47;;;19.70;50.20;;;;;;4976044;28;20498;-70
2021/01/11 10:09:23;;;;;;;3.20;2.43;;;19.70;50.10;;;;;;4988086;28;20481;-71
2021/01/11 10:11:50;;;;;;;2.77;2.60;;;19.80;50.20;;;;;;4990013;28;20492;-70
2021/01/11 10:14:16;;;;;;;3.33;3.13;;;19.80;50.30;;;;;;4977850;28;20496;-69
2021/01/11 10:16:43;;;;;;;2.43;2.33;;;19.80;50.30;;;;;;4983591;28;20491;-70
2021/01/11 10:19:09;;;;;;;2.50;2.30;;;19.80;50.30;;;;;;4985895;28;21191;-69
2021/01/11 10:21:37;;;;;;;3.20;2.87;;;19.80;50.30;;;;;;4992438;28;21668;-70
2021/01/11 10:24:03;;;;;;;2.60;2.50;;;19.80;50.20;;;;;;4990208;28;20554;-69
2021/01/11 10:26:30;;;;;;;2.50;2.30;;;19.90;50.40;;;;;;4984587;28;20488;-71
2021/01/11 10:28:56;;;;;;;3.70;2.67;;;19.80;50.20;;;;;;4993837;28;20492;-71
2021/01/11 10:31:23;;;;;;;2.27;2.17;;;19.80;50.30;;;;;;4988304;28;20485;-71
2021/01/11 10:33:49;;;;;;;2.00;1.90;;;19.80;50.20;;;;;;4991690;28;20488;-71
2021/01/11 10:36:15;;;;;;;2.57;2.37;;;19.80;50.20;;;;;;4985435;28;20480;-71
2021/01/11 10:38:41;;;;;;;3.13;2.93;;;19.90;50.10;;;;;;4991896;28;20522;-71
2021/01/11 10:41:08;;;;;;;2.67;2.47;;;19.90;50.00;;;;;;4989031;28;20500;-70
2021/01/11 10:43:35;;;;;;;3.20;3.03;;;19.90;49.80;;;;;;4990759;28;20493;-71
2021/01/11 10:46:01;;;;;;;2.70;2.60;;;20.00;49.60;;;;;;4971215;28;20489;-70
2021/01/11 10:48:27;;;;;;;2.87;2.67;;;20.00;49.40;;;;;;4994193;28;20583;-71
2021/01/11 10:50:53;;;;;;;3.73;2.60;;;20.10;49.30;;;;;;4992185;28;20873;-71
2021/01/11 10:53:19;;;;;;;2.70;2.50;;;20.10;49.50;;;;;;4992068;28;20527;-70
2021/01/11 10:55:46;;;;;;;2.87;2.67;;;20.00;49.30;;;;;;4988203;28;20748;-70
2021/01/11 10:58:12;;;;;;;3.53;3.30;;;20.00;49.40;;;;;;4993140;28;20499;-72
2021/01/11 11:00:39;;;;;;;2.77;2.60;;;19.90;49.50;;;;;;4990202;28;20488;-71
2021/01/11 11:03:06;;;;;;;2.47;2.37;;;19.90;49.70;;;;;;4988022;28;20504;-72
2021/01/11 11:05:32;;;;;;;2.43;2.23;;;19.90;49.80;;;;;;4988445;28;20750;-70
2021/01/11 11:07:58;;;;;;;2.90;2.70;;;19.90;49.90;;;;;;4978928;28;20488;-70
2021/01/11 11:10:25;;;;;;;2.43;2.23;;;19.80;49.80;;;;;;4984386;28;20538;-70
2021/01/11 11:12:51;;;;;;;2.90;2.80;;;19.80;49.70;;;;;;4988791;28;20943;-71
2021/01/11 11:15:18;;;;;;;2.20;2.10;;;19.80;49.60;;;;;;4992265;28;20546;-71
2021/01/11 11:17:45;;;;;;;2.20;2.10;;;19.90;49.50;;;;;;4984190;28;20472;-70
2021/01/11 11:20:13;;;;;;;2.67;2.57;;;19.80;50.10;;;;;;4991218;28;20499;-71
2021/01/11 11:22:39;;;;;;;2.33;2.23;;;19.80;49.30;;;;;;4990412;28;20507;-70
2021/01/11 11:25:06;;;;;;;1.70;1.70;;;19.80;49.20;;;;;;4990743;28;20489;-71
2021/01/11 11:27:33;;;;;;;1.97;1.87;;;19.80;49.30;;;;;;4988035;28;21594;-70
2021/01/11 11:29:59;;;;;;;2.10;2.00;;;19.90;49.40;;;;;;4989496;28;20571;-71
2021/01/11 11:32:26;;;;;;;2.20;2.10;;;19.80;49.40;;;;;;4992034;28;20484;-71
2021/01/11 11:34:53;;;;;;;2.60;2.40;;;19.80;49.60;;;;;;4992176;28;20842;-71
2021/01/11 11:37:19;;;;;;;1.97;1.87;;;19.80;49.60;;;;;;4984419;28;20496;-70
2021/01/11 11:39:46;;;;;;;2.30;2.20;;;19.70;49.70;;;;;;4989517;28;20568;-71
2021/01/11 11:42:12;;;;;;;2.30;2.20;;;19.70;49.70;;;;;;4976081;28;21005;-71
2021/01/11 11:44:38;;;;;;;1.93;1.80;;;19.80;49.80;;;;;;4990647;28;20907;-70
2021/01/11 11:47:04;;;;;;;1.87;1.67;;;19.80;49.70;;;;;;4982846;28;20908;-71
2021/01/11 11:49:31;;;;;;;2.27;2.10;;;19.80;49.70;;;;;;4991000;28;20500;-71
2021/01/11 11:51:58;;;;;;;1.77;1.73;;;19.70;49.50;;;;;;4988178;28;20528;-71
2021/01/11 11:54:24;;;;;;;1.60;1.50;;;19.80;49.80;;;;;;4989558;28;20488;-70
2021/01/11 11:56:50;;;;;;;2.20;2.10;;;19.80;49.70;;;;;;4984658;28;20492;-70
2021/01/11 11:59:16;;;;;;;2.30;2.10;;;19.80;49.70;;;;;;4992073;28;21001;-70
2021/01/11 12:01:42;;;;;;;2.33;2.13;;;19.80;49.80;;;;;;4990714;28;20486;-71
2021/01/11 12:04:08;;;;;;;2.07;1.90;;;19.80;49.70;;;;;;4989543;28;20484;-70
2021/01/11 12:06:41;;;;;;;1.90;1.80;;;19.80;49.60;;;;;;4976484;28;20512;-71
2021/01/11 12:09:08;;;;;;;2.53;2.33;;;19.80;49.60;;;;;;5000708;28;20497;-70
2021/01/11 12:11:41;;;;;;;2.17;2.07;;;19.80;49.70;;;;;;4990186;28;20481;-70
2021/01/11 12:14:07;;;;;;;2.10;2.00;;;19.80;49.60;;;;;;4976482;28;20484;-70
2021/01/11 12:16:33;;;;;;;2.20;2.10;;;19.80;49.60;;;;;;4968578;28;20473;-71
2021/01/11 12:19:00;;;;;;;2.60;2.40;;;19.80;49.50;;;;;;4991499;28;20511;-71
2021/01/11 12:21:30;;;;;;;2.30;2.20;;;19.80;49.50;;;;;;4981062;28;20476;-71
2021/01/11 12:23:56;;;;;;;1.90;1.80;;;19.90;49.60;;;;;;4983541;28;20480;-71
2021/01/11 12:26:23;;;;;;;1.77;1.60;;;19.80;49.60;;;;;;4979758;28;20489;-71
2021/01/11 12:28:49;;;;;;;2.20;2.10;;;19.80;49.60;;;;;;4990681;28;20515;-71
2021/01/11 12:31:15;;;;;;;1.90;1.80;;;19.80;49.80;;;;;;4988377;28;20486;-71
2021/01/11 12:33:41;;;;;;;2.20;2.10;;;19.80;49.60;;;;;;4990955;28;20491;-71
2021/01/11 12:36:08;;;;;;;1.87;1.77;;;19.80;49.60;;;;;;4983541;28;20502;-71
2021/01/11 12:38:34;;;;;;;1.80;1.70;;;19.80;49.30;;;;;;4989474;28;20508;-70
2021/01/11 12:41:01;;;;;;;1.97;1.90;;;19.80;49.20;;;;;;4986538;28;20493;-70
2021/01/11 12:43:29;;;;;;;1.77;1.77;;;19.90;49.10;;;;;;4990039;28;20488;-70
2021/01/11 12:45:55;;;;;;;1.80;1.70;;;19.90;49.10;;;;;;4982142;28;20485;-70
2021/01/11 12:48:21;;;;;;;2.20;2.10;;;19.90;49.20;;;;;;4979748;28;20484;-70
2021/01/11 12:50:47;;;;;;;1.93;1.83;;;19.90;49.30;;;;;;4988461;28;20492;-70